createdAt,value
2023-04-15T00:01:08.099Z,4.20
2023-04-15T00:03:35.171Z,3.45
2023-04-15T00:06:02.411Z,5.15
2023-04-15T00:08:29.918Z,4.80
2023-04-15T00:10:56.550Z,3.85
2023-04-15T00:13:23.026Z,4.65
2023-04-15T00:15:49.510Z,5.47
2023-04-15T00:18:15.942Z,5.97
2023-04-15T00:20:42.447Z,5.40
2023-04-15T00:23:08.988Z,5.32
2023-04-15T00:25:35.589Z,4.55
2023-04-15T00:28:02.772Z,5.65
2023-04-15T00:30:29.372Z,4.68
2023-04-15T00:32:56.046Z,4.93
2023-04-15T00:35:23.917Z,4.53
2023-04-15T00:37:51.363Z,4.65
2023-04-15T00:40:20.072Z,4.72
2023-04-15T00:42:49.929Z,4.93
2023-04-15T00:45:16.373Z,5.15
2023-04-15T00:47:43.631Z,5.35
2023-04-15T00:50:12.527Z,4.95
2023-04-15T00:52:40.172Z,6.32
2023-04-15T00:55:07.578Z,7.88
2023-04-15T00:57:35.152Z,7.78
2023-04-15T01:00:02.536Z,8.48
2023-04-15T01:02:29.477Z,7.88
2023-04-15T01:04:56.744Z,7.90
2023-04-15T01:07:23.516Z,8.25
2023-04-15T01:09:50.115Z,7.47
2023-04-15T01:12:17.286Z,7.20
2023-04-15T01:14:43.771Z,8.98
2023-04-15T01:17:10.407Z,9.80
2023-04-15T01:19:38.168Z,8.30
2023-04-15T01:22:05.588Z,6.72
2023-04-15T01:24:34.088Z,6.22
2023-04-15T01:27:00.732Z,8.48
2023-04-15T01:29:27.927Z,5.95
2023-04-15T01:31:56.729Z,8.10
2023-04-15T01:34:23.550Z,7.30
2023-04-15T01:36:52.907Z,6.18
2023-04-15T01:39:19.436Z,8.80
2023-04-15T01:41:45.960Z,8.80
2023-04-15T01:44:12.457Z,9.55
2023-04-15T01:46:39.389Z,9.13
2023-04-15T01:49:06.233Z,8.95
2023-04-15T01:51:32.943Z,9.00
2023-04-15T01:53:59.389Z,7.97
2023-04-15T01:56:26.573Z,9.10
2023-04-15T01:58:53.377Z,6.72
2023-04-15T02:01:20.106Z,8.10
2023-04-15T02:03:48.049Z,7.53
2023-04-15T02:06:14.969Z,7.20
2023-04-15T02:08:41.612Z,6.97
2023-04-15T02:11:08.431Z,7.47
2023-04-15T02:13:34.957Z,9.65
2023-04-15T02:16:01.559Z,9.05
2023-04-15T02:18:28.064Z,6.72
2023-04-15T02:20:54.673Z,7.07
2023-04-15T02:23:21.171Z,5.53
2023-04-15T02:25:53.618Z,5.18
2023-04-15T02:28:21.367Z,5.80
2023-04-15T02:30:51.059Z,6.35
2023-04-15T02:33:18.086Z,5.30
2023-04-15T02:35:45.461Z,5.50
2023-04-15T02:38:12.211Z,4.45
2023-04-15T02:40:38.702Z,6.20
2023-04-15T02:43:07.178Z,4.57
2023-04-15T02:45:34.158Z,4.88
2023-04-15T02:48:06.088Z,5.47
2023-04-15T02:50:32.757Z,4.82
2023-04-15T02:53:01.185Z,4.47
2023-04-15T02:55:27.916Z,4.70
2023-04-15T02:57:59.758Z,5.40
2023-04-15T03:00:26.489Z,5.55
2023-04-15T03:03:07.209Z,5.95
2023-04-15T03:05:33.879Z,5.40
2023-04-15T03:08:03.535Z,4.53
2023-04-15T03:10:30.038Z,4.97
2023-04-15T03:12:56.497Z,4.93
2023-04-15T03:15:23.154Z,4.80
2023-04-15T03:17:49.896Z,4.00
2023-04-15T03:20:16.961Z,5.13
2023-04-15T03:22:43.652Z,3.65
2023-04-15T03:25:10.144Z,3.70
2023-04-15T03:27:37.804Z,4.15
2023-04-15T03:30:04.520Z,4.32
2023-04-15T03:32:31.792Z,4.68
2023-04-15T03:34:58.366Z,4.70
2023-04-15T03:37:24.840Z,4.47
2023-04-15T03:39:51.470Z,4.72
2023-04-15T03:42:17.931Z,4.65
2023-04-15T03:44:44.482Z,3.85
2023-04-15T03:47:10.950Z,4.05
2023-04-15T03:49:37.622Z,4.38
2023-04-15T03:52:04.418Z,5.68
2023-04-15T03:54:30.958Z,3.70
2023-04-15T03:57:00.763Z,3.85
2023-04-15T03:59:27.368Z,4.78
2023-04-15T04:01:53.902Z,5.63
2023-04-15T04:04:20.392Z,4.43
2023-04-15T04:06:46.918Z,3.70
2023-04-15T04:09:13.427Z,3.38
2023-04-15T04:11:39.865Z,4.63
2023-04-15T04:14:07.107Z,3.88
2023-04-15T04:16:33.607Z,3.58
2023-04-15T04:19:00.316Z,4.00
2023-04-15T04:21:27.151Z,3.65
2023-04-15T04:23:53.694Z,4.43
2023-04-15T04:26:20.236Z,3.60
2023-04-15T04:28:46.702Z,4.45
2023-04-15T04:31:13.408Z,4.05
2023-04-15T04:33:40.041Z,5.10
2023-04-15T04:36:06.788Z,4.25
2023-04-15T04:38:33.279Z,3.20
2023-04-15T04:41:00.369Z,4.10
2023-04-15T04:43:27.462Z,4.30
2023-04-15T04:45:53.983Z,4.18
2023-04-15T04:48:20.649Z,4.25
2023-04-15T04:50:47.261Z,3.78
2023-04-15T04:53:13.859Z,3.85
2023-04-15T04:55:40.529Z,3.67
2023-04-15T04:58:07.053Z,4.88
2023-04-15T05:00:33.706Z,4.03
2023-04-15T05:03:01.014Z,4.03
2023-04-15T05:05:27.607Z,4.07
2023-04-15T05:07:54.062Z,4.25
2023-04-15T05:10:21.066Z,4.40
2023-04-15T05:12:47.655Z,3.35
2023-04-15T05:15:14.142Z,3.78
2023-04-15T05:17:40.615Z,5.97
2023-04-15T05:20:07.944Z,5.05
2023-04-15T05:22:34.620Z,4.03
2023-04-15T05:25:01.110Z,4.22
2023-04-15T05:27:27.658Z,4.47
2023-04-15T05:29:54.098Z,4.50
2023-04-15T05:32:20.710Z,4.15
2023-04-15T05:34:47.241Z,4.28
2023-04-15T05:37:13.870Z,5.55
2023-04-15T05:39:40.414Z,4.50
2023-04-15T05:42:07.008Z,7.18
2023-04-15T05:44:33.430Z,4.53
2023-04-15T05:47:00.065Z,5.85
2023-04-15T05:49:27.559Z,5.57
2023-04-15T05:51:54.298Z,4.35
2023-04-15T05:54:22.539Z,5.63
2023-04-15T05:56:49.409Z,5.88
2023-04-15T05:59:16.067Z,5.85
2023-04-15T06:01:43.028Z,6.28
2023-04-15T06:04:09.810Z,5.50
2023-04-15T06:06:36.453Z,5.18
2023-04-15T06:09:03.183Z,5.88
2023-04-15T06:11:29.809Z,4.68
2023-04-15T06:13:56.613Z,4.85
2023-04-15T06:16:26.436Z,5.68
2023-04-15T06:18:52.938Z,4.95
2023-04-15T06:21:19.567Z,6.60
2023-04-15T06:23:46.306Z,6.22
2023-04-15T06:26:12.805Z,6.78
2023-04-15T06:28:39.237Z,5.45
2023-04-15T06:31:06.016Z,5.65
2023-04-15T06:33:32.487Z,5.20
2023-04-15T06:35:59.110Z,5.13
2023-04-15T06:38:25.885Z,4.90
2023-04-15T06:40:52.504Z,4.70
2023-04-15T06:43:19.740Z,5.30
2023-04-15T06:45:46.309Z,5.97
2023-04-15T06:48:13.082Z,5.18
2023-04-15T06:50:39.652Z,5.05
2023-04-15T06:53:06.625Z,4.95
2023-04-15T06:55:33.983Z,5.68
2023-04-15T06:58:01.202Z,4.10
2023-04-15T07:00:28.690Z,4.93
2023-04-15T07:02:55.856Z,4.10
2023-04-15T07:05:22.564Z,4.57
2023-04-15T07:07:48.995Z,5.75
2023-04-15T07:10:15.893Z,5.80
2023-04-15T07:12:42.525Z,4.40
2023-04-15T07:15:09.482Z,4.72
2023-04-15T07:17:36.070Z,6.43
2023-04-15T07:20:03.094Z,5.95
2023-04-15T07:22:29.624Z,4.97
2023-04-15T07:24:56.317Z,5.88
2023-04-15T07:27:22.993Z,6.65
2023-04-15T07:29:51.469Z,5.60
2023-04-15T07:32:18.224Z,6.50
2023-04-15T07:34:44.828Z,6.75
2023-04-15T07:37:11.349Z,7.47
2023-04-15T07:39:38.026Z,7.28
2023-04-15T07:42:04.697Z,7.55
2023-04-15T07:44:31.644Z,9.45
2023-04-15T07:46:58.073Z,8.52
2023-04-15T07:49:24.521Z,6.95
2023-04-15T07:51:51.467Z,7.22
2023-04-15T07:54:18.081Z,7.28
2023-04-15T07:56:44.538Z,6.53
2023-04-15T07:59:12.352Z,5.80
2023-04-15T08:01:38.960Z,5.82
2023-04-15T08:04:07.849Z,5.97
2023-04-15T08:09:01.786Z,10.88
2023-04-15T08:11:28.613Z,8.82
2023-04-15T08:13:55.356Z,8.68
2023-04-15T08:16:27.920Z,7.22
2023-04-15T08:18:56.760Z,7.72
2023-04-15T08:21:24.620Z,5.63
2023-04-15T08:23:52.843Z,6.82
2023-04-15T08:26:20.988Z,6.10
2023-04-15T08:28:47.775Z,6.43
2023-04-15T08:31:15.586Z,5.97
2023-04-15T08:33:42.600Z,6.28
2023-04-15T08:36:09.421Z,5.68
2023-04-15T08:38:36.570Z,6.43
2023-04-15T08:41:11.810Z,7.72
2023-04-15T08:43:48.969Z,6.13
2023-04-15T08:46:16.688Z,7.85
2023-04-15T08:48:44.187Z,6.88
2023-04-15T08:51:10.949Z,7.15
2023-04-15T08:53:37.677Z,5.82
2023-04-15T08:56:07.516Z,6.70
2023-04-15T08:58:35.655Z,5.78
2023-04-15T09:01:02.482Z,6.95
2023-04-15T09:03:29.323Z,9.50
2023-04-15T09:05:57.314Z,8.10
2023-04-15T09:08:23.881Z,9.23
2023-04-15T09:10:50.506Z,9.35
2023-04-15T09:13:17.030Z,8.32
2023-04-15T09:15:43.993Z,7.18
2023-04-15T09:18:13.557Z,7.93
2023-04-15T09:20:44.193Z,11.35
2023-04-15T09:23:15.689Z,8.50
2023-04-15T09:25:42.626Z,8.10
2023-04-15T09:28:09.561Z,7.85
2023-04-15T09:30:36.768Z,8.85
2023-04-15T09:33:10.932Z,6.57
2023-04-15T09:35:37.599Z,8.48
2023-04-15T09:38:07.254Z,7.68
2023-04-15T09:40:37.544Z,8.18
2023-04-15T09:43:05.472Z,8.32
2023-04-15T09:45:33.425Z,9.25
2023-04-15T09:48:15.466Z,9.85
2023-04-15T09:50:43.922Z,8.82
2023-04-15T09:53:12.393Z,9.50
2023-04-15T09:55:38.792Z,9.98
2023-04-15T09:58:22.088Z,9.65
2023-04-15T10:00:50.386Z,10.23
2023-04-15T10:03:25.129Z,18.15
2023-04-15T10:05:57.141Z,32.88
2023-04-15T10:08:25.854Z,27.92
2023-04-15T10:10:53.182Z,18.42
2023-04-15T10:13:24.739Z,15.38
2023-04-15T10:16:00.807Z,12.00
2023-04-15T10:18:28.761Z,16.08
2023-04-15T10:20:55.997Z,13.20
2023-04-15T10:23:24.453Z,13.57
2023-04-15T10:25:56.810Z,13.70
2023-04-15T10:28:23.255Z,15.85
2023-04-15T10:30:50.046Z,16.25
2023-04-15T10:33:24.496Z,17.17
2023-04-15T10:35:52.761Z,15.60
2023-04-15T10:38:34.566Z,16.35
2023-04-15T10:41:21.011Z,15.13
2023-04-15T10:43:52.792Z,15.13
2023-04-15T10:46:23.984Z,19.90
2023-04-15T10:48:52.916Z,18.05
2023-04-15T10:51:30.509Z,15.25
2023-04-15T10:54:00.941Z,17.70
2023-04-15T10:56:31.375Z,16.85
2023-04-15T10:59:01.418Z,17.20
2023-04-15T11:01:50.699Z,18.42
2023-04-15T11:04:53.405Z,21.05
2023-04-15T11:07:35.967Z,18.65
2023-04-15T11:10:03.017Z,20.20
2023-04-15T11:12:36.376Z,18.88
2023-04-15T11:15:32.402Z,20.77
2023-04-15T11:18:24.558Z,19.35
2023-04-15T11:20:52.043Z,21.27
2023-04-15T11:23:20.014Z,20.05
2023-04-15T11:25:46.464Z,21.60
2023-04-15T11:28:13.774Z,21.20
2023-04-15T11:30:40.640Z,21.83
2023-04-15T11:33:09.859Z,19.35
2023-04-15T11:35:36.673Z,19.42
2023-04-15T11:38:10.057Z,19.70
2023-04-15T11:40:37.563Z,21.88
2023-04-15T11:43:09.392Z,21.25
2023-04-15T11:45:37.260Z,22.10
2023-04-15T11:48:12.107Z,21.15
2023-04-15T11:50:41.048Z,21.38
2023-04-15T11:53:10.557Z,19.55
2023-04-15T11:55:44.778Z,21.95
2023-04-15T11:58:23.275Z,22.42
2023-04-15T12:00:54.119Z,19.00
2023-04-15T12:03:27.343Z,19.48
2023-04-15T12:06:17.261Z,17.85
2023-04-15T12:08:56.030Z,21.83
2023-04-15T12:11:36.101Z,22.75
2023-04-15T12:14:06.739Z,22.98
2023-04-15T12:16:49.175Z,20.67
2023-04-15T12:19:39.063Z,19.08
2023-04-15T12:22:10.186Z,17.10
2023-04-15T12:24:37.622Z,16.13
2023-04-15T12:27:05.645Z,17.30
2023-04-15T12:29:34.267Z,18.75
2023-04-15T12:32:14.997Z,15.90
2023-04-15T12:34:43.579Z,16.30
2023-04-15T12:37:13.087Z,16.45
2023-04-15T12:39:42.024Z,16.73
2023-04-15T12:44:36.649Z,12.27
2023-04-15T12:47:03.436Z,11.70
2023-04-15T12:49:32.510Z,12.77
2023-04-15T12:52:00.693Z,15.18
2023-04-15T12:54:27.834Z,14.15
2023-04-15T12:56:54.702Z,13.75
2023-04-15T12:59:21.663Z,14.05
2023-04-15T13:01:49.006Z,11.73
2023-04-15T13:04:16.614Z,13.43
2023-04-15T13:06:43.716Z,12.65
2023-04-15T13:09:10.258Z,13.68
2023-04-15T13:11:36.812Z,11.45
2023-04-15T13:14:06.165Z,17.98
2023-04-15T13:16:33.348Z,14.55
2023-04-15T13:19:00.977Z,15.45
2023-04-15T13:21:28.352Z,15.57
2023-04-15T13:23:55.615Z,12.80
2023-04-15T13:26:22.203Z,10.35
2023-04-15T13:28:48.581Z,9.48
2023-04-15T13:31:15.225Z,9.52
2023-04-15T13:33:41.656Z,8.88
2023-04-15T13:36:08.422Z,9.10
2023-04-15T13:38:35.170Z,8.88
2023-04-15T13:41:01.617Z,9.52
2023-04-15T13:43:28.509Z,10.15
2023-04-15T13:45:55.290Z,8.23
2023-04-15T13:48:21.863Z,9.32
2023-04-15T13:50:48.316Z,8.90
2023-04-15T13:53:16.955Z,7.68
2023-04-15T13:55:43.423Z,7.90
2023-04-15T13:58:10.268Z,8.75
2023-04-15T14:00:36.867Z,8.45
2023-04-15T14:03:04.025Z,9.00
2023-04-15T14:05:32.915Z,10.45
2023-04-15T14:08:01.413Z,9.52
2023-04-15T14:10:27.814Z,6.55
2023-04-15T14:12:54.291Z,6.93
2023-04-15T14:15:21.375Z,7.15
2023-04-15T14:17:47.878Z,8.25
2023-04-15T14:20:16.756Z,7.47
2023-04-15T14:22:43.714Z,8.15
2023-04-15T14:25:11.716Z,7.22
2023-04-15T14:27:43.895Z,6.80
2023-04-15T14:30:10.902Z,6.97
2023-04-15T14:32:37.410Z,6.55
2023-04-15T14:35:04.366Z,6.97
2023-04-15T14:37:31.022Z,8.10
2023-04-15T14:39:57.538Z,7.75
2023-04-15T14:42:24.024Z,7.63
2023-04-15T14:44:50.519Z,6.47
2023-04-15T14:47:17.146Z,7.97
2023-04-15T14:49:44.057Z,7.43
2023-04-15T14:52:10.530Z,7.15
2023-04-15T14:54:36.989Z,7.15
2023-04-15T14:57:09.073Z,8.40
2023-04-15T14:59:35.828Z,7.07
2023-04-15T15:02:02.364Z,6.97
2023-04-15T15:04:29.389Z,8.20
2023-04-15T15:06:56.143Z,7.57
2023-04-15T15:09:23.858Z,8.20
2023-04-15T15:11:50.834Z,9.40
2023-04-15T15:14:17.349Z,9.57
2023-04-15T15:16:44.022Z,9.52
2023-04-15T15:19:10.584Z,8.77
2023-04-15T15:21:37.455Z,8.48
2023-04-15T15:24:04.044Z,8.88
2023-04-15T15:26:30.461Z,8.90
2023-04-15T15:28:57.000Z,8.63
2023-04-15T15:31:23.708Z,7.82
2023-04-15T15:33:51.663Z,8.13
2023-04-15T15:36:18.130Z,6.45
2023-04-15T15:38:44.600Z,8.90
2023-04-15T15:41:11.895Z,8.15
2023-04-15T15:43:38.286Z,7.47
2023-04-15T15:46:04.743Z,8.32
2023-04-15T15:48:31.228Z,9.23
2023-04-15T15:50:57.758Z,7.93
2023-04-15T15:53:25.874Z,7.90
2023-04-15T15:55:53.846Z,8.25
2023-04-15T15:58:21.200Z,8.50
2023-04-15T16:00:47.836Z,9.70
2023-04-15T16:03:15.443Z,8.40
2023-04-15T16:05:42.223Z,9.02
2023-04-15T16:08:08.711Z,9.48
2023-04-15T16:10:35.298Z,6.15
2023-04-15T16:13:02.395Z,7.25
2023-04-15T16:15:28.991Z,6.95
2023-04-15T16:17:55.605Z,7.25
2023-04-15T16:20:22.082Z,7.57
2023-04-15T16:22:48.778Z,7.95
2023-04-15T16:25:15.370Z,8.73
2023-04-15T16:27:54.582Z,7.68
2023-04-15T16:30:25.983Z,7.93
2023-04-15T16:32:52.703Z,10.00
2023-04-15T16:35:19.926Z,8.88
2023-04-15T16:37:46.509Z,8.27
2023-04-15T16:40:13.101Z,9.43
2023-04-15T16:42:41.251Z,9.38
2023-04-15T16:45:07.912Z,14.13
2023-04-15T16:47:34.502Z,12.20
2023-04-15T16:50:01.022Z,8.90
2023-04-15T16:52:28.948Z,8.38
2023-04-15T16:54:55.871Z,9.73
2023-04-15T16:57:22.297Z,16.35
2023-04-15T16:59:51.546Z,12.02
2023-04-15T17:02:18.164Z,9.77
2023-04-15T17:04:44.812Z,9.90
2023-04-15T17:07:11.433Z,9.00
2023-04-15T17:09:41.124Z,8.38
2023-04-15T17:12:07.882Z,8.85
2023-04-15T17:14:35.114Z,10.98
2023-04-15T17:17:01.732Z,10.60
2023-04-15T17:19:28.357Z,11.48
2023-04-15T17:21:55.146Z,10.27
2023-04-15T17:24:21.913Z,11.18
2023-04-15T17:26:48.632Z,9.68
2023-04-15T17:29:15.173Z,11.38
2023-04-15T17:31:42.064Z,15.68
2023-04-15T17:34:10.255Z,46.15
2023-04-15T17:36:37.954Z,88.65
2023-04-15T17:39:04.727Z,44.03
2023-04-15T17:41:31.341Z,41.85
2023-04-15T17:43:57.814Z,26.85
2023-04-15T17:46:24.330Z,16.67
2023-04-15T17:48:50.889Z,23.15
2023-04-15T17:51:17.328Z,22.92
2023-04-15T17:53:45.738Z,23.33
2023-04-15T17:56:12.189Z,38.70
2023-04-15T17:58:39.186Z,50.30
2023-04-15T18:01:06.306Z,47.92
2023-04-15T18:03:33.028Z,29.73
2023-04-15T18:06:01.309Z,16.33
2023-04-15T18:08:28.908Z,13.48
2023-04-15T18:10:55.528Z,10.93
2023-04-15T18:13:22.067Z,10.82
2023-04-15T18:15:49.445Z,11.82
2023-04-15T18:18:16.017Z,9.13
2023-04-15T18:20:42.485Z,10.20
2023-04-15T18:23:08.932Z,9.25
2023-04-15T18:25:38.085Z,9.38
2023-04-15T18:28:05.358Z,7.80
2023-04-15T18:30:31.825Z,8.75
2023-04-15T18:32:58.262Z,11.07
2023-04-15T18:35:24.784Z,10.30
2023-04-15T18:37:52.558Z,9.65
2023-04-15T18:40:19.075Z,12.02
2023-04-15T18:42:45.651Z,11.32
2023-04-15T18:45:12.044Z,14.05
2023-04-15T18:47:38.588Z,10.50
2023-04-15T18:50:05.625Z,14.00
2023-04-15T18:52:33.780Z,14.60
2023-04-15T18:55:00.766Z,13.95
2023-04-15T18:57:32.272Z,12.55
2023-04-15T19:00:01.926Z,11.73
2023-04-15T19:02:28.565Z,12.32
2023-04-15T19:04:55.200Z,12.93
2023-04-15T19:07:23.080Z,12.65
2023-04-15T19:09:53.082Z,12.07
2023-04-15T19:12:19.663Z,11.90
2023-04-15T19:14:46.103Z,12.90
2023-04-15T19:17:12.537Z,13.48
2023-04-15T19:19:38.993Z,13.45
2023-04-15T19:22:06.135Z,12.40
2023-04-15T19:24:33.292Z,12.75
2023-04-15T19:26:59.959Z,11.98
2023-04-15T19:29:28.472Z,12.90
2023-04-15T19:31:55.029Z,12.60
2023-04-15T19:34:21.944Z,10.93
2023-04-15T19:36:48.601Z,11.43
2023-04-15T19:39:15.508Z,12.02
2023-04-15T19:41:43.917Z,11.23
2023-04-15T19:44:12.763Z,13.68
2023-04-15T19:46:40.419Z,12.18
2023-04-15T19:49:07.123Z,13.07
2023-04-15T19:51:33.749Z,11.23
2023-04-15T19:54:00.327Z,12.32
2023-04-15T19:56:26.754Z,12.30
2023-04-15T19:58:54.904Z,12.07
2023-04-15T20:01:22.144Z,11.88
2023-04-15T20:03:48.853Z,11.35
2023-04-15T20:06:15.855Z,12.85
2023-04-15T20:08:42.378Z,10.70
2023-04-15T20:11:12.261Z,13.20
2023-04-15T20:13:41.640Z,12.88
2023-04-15T20:16:08.239Z,12.10
2023-04-15T20:18:34.915Z,11.98
2023-04-15T20:21:01.516Z,12.13
2023-04-15T20:23:28.051Z,11.90
2023-04-15T20:25:54.687Z,12.25
2023-04-15T20:28:23.319Z,12.93
2023-04-15T20:30:49.759Z,13.13
2023-04-15T20:33:16.333Z,11.23
2023-04-15T20:35:42.845Z,14.48
2023-04-15T20:38:09.367Z,12.55
2023-04-15T20:40:36.384Z,12.52
2023-04-15T20:43:02.819Z,13.55
2023-04-15T20:45:29.261Z,12.88
2023-04-15T20:47:56.084Z,15.60
2023-04-15T20:50:22.605Z,13.02
2023-04-15T20:52:49.033Z,13.05
2023-04-15T20:55:15.705Z,11.63
2023-04-15T20:57:42.158Z,11.73
2023-04-15T21:00:11.870Z,11.98
2023-04-15T21:02:38.657Z,13.50
2023-04-15T21:05:06.070Z,13.02
2023-04-15T21:07:32.698Z,11.68
2023-04-15T21:09:59.303Z,13.40
2023-04-15T21:12:25.745Z,14.07
2023-04-15T21:14:52.384Z,14.00
2023-04-15T21:17:18.850Z,14.77
2023-04-15T21:19:45.315Z,12.73
2023-04-15T21:22:11.894Z,13.43
2023-04-15T21:24:38.398Z,13.55
2023-04-15T21:27:04.836Z,12.23
2023-04-15T21:29:31.321Z,11.73
2023-04-15T21:31:57.900Z,11.30
2023-04-15T21:34:24.396Z,12.25
2023-04-15T21:36:50.828Z,12.48
2023-04-15T21:39:17.266Z,12.60
2023-04-15T21:41:43.768Z,11.20
2023-04-15T21:44:11.139Z,12.60
2023-04-15T21:46:38.619Z,11.93
2023-04-15T21:49:06.977Z,12.23
2023-04-15T21:51:33.767Z,12.95
2023-04-15T21:54:00.281Z,12.27
2023-04-15T21:56:26.757Z,10.98
2023-04-15T21:58:56.828Z,13.50
2023-04-15T22:01:24.226Z,12.35
2023-04-15T22:03:51.223Z,12.90
2023-04-15T22:06:18.297Z,11.77
2023-04-15T22:08:56.190Z,12.43
2023-04-15T22:11:27.447Z,14.88
2023-04-15T22:13:54.647Z,13.25
2023-04-15T22:16:21.169Z,12.73
2023-04-15T22:18:47.666Z,12.15
2023-04-15T22:21:14.391Z,12.75
2023-04-15T22:23:41.090Z,13.75
2023-04-15T22:26:07.560Z,11.55
2023-04-15T22:28:33.995Z,13.00
2023-04-15T22:31:00.625Z,12.10
2023-04-15T22:33:27.232Z,13.27
2023-04-15T22:35:53.713Z,13.38
2023-04-15T22:38:20.213Z,14.27
2023-04-15T22:40:46.626Z,12.13
2023-04-15T22:43:13.036Z,12.60
2023-04-15T22:45:39.561Z,13.85
2023-04-15T22:48:06.224Z,15.10
2023-04-15T22:50:32.941Z,12.23
2023-04-15T22:52:59.375Z,13.02
2023-04-15T22:55:25.953Z,13.15
2023-04-15T22:57:52.686Z,11.95
2023-04-15T23:00:19.292Z,13.55
2023-04-15T23:02:46.085Z,13.63
2023-04-15T23:05:13.481Z,12.43
2023-04-15T23:07:40.306Z,16.08
2023-04-15T23:10:07.994Z,14.70
2023-04-15T23:12:34.724Z,16.80
2023-04-15T23:15:01.186Z,13.90
2023-04-15T23:17:27.698Z,15.27
2023-04-15T23:19:54.102Z,14.98
2023-04-15T23:22:20.716Z,15.90
2023-04-15T23:24:47.179Z,15.38
2023-04-15T23:27:13.576Z,16.17
2023-04-15T23:29:39.981Z,18.83
2023-04-15T23:32:06.697Z,15.32
2023-04-15T23:34:33.163Z,16.92
2023-04-15T23:36:59.585Z,14.73
2023-04-15T23:39:26.442Z,17.23
2023-04-15T23:41:53.280Z,16.10
2023-04-15T23:44:20.313Z,16.50
2023-04-15T23:46:46.962Z,17.00
2023-04-15T23:49:13.541Z,18.42
2023-04-15T23:51:40.215Z,16.42
2023-04-15T23:54:06.692Z,18.48
2023-04-15T23:56:33.149Z,17.00
2023-04-15T23:58:59.573Z,15.85
